sensor_id;sensor_type;location;lat;lon;timestamp;P1;durP1;ratioP1;P2;durP2;ratioP2
51877;SDS011;37911;51.526;11.536;2023-02-01T00:00:39;14.60;;;2.13;;
51877;SDS011;37911;51.526;11.536;2023-02-01T00:03:42;13.38;;;2.78;;
51877;SDS011;37911;51.526;11.536;2023-02-01T00:06:48;14.68;;;3.35;;
51877;SDS011;37911;51.526;11.536;2023-02-01T00:09:52;13.55;;;2.35;;
51877;SDS011;37911;51.526;11.536;2023-02-01T00:12:55;14.05;;;2.25;;
51877;SDS011;37911;51.526;11.536;2023-02-01T00:16:02;14.13;;;2.53;;
51877;SDS011;37911;51.526;11.536;2023-02-01T00:19:07;20.15;;;3.83;;
51877;SDS011;37911;51.526;11.536;2023-02-01T00:22:15;18.30;;;2.88;;
51877;SDS011;37911;51.526;11.536;2023-02-01T00:25:19;20.27;;;4.25;;
51877;SDS011;37911;51.526;11.536;2023-02-01T00:28:22;11.82;;;2.28;;
51877;SDS011;37911;51.526;11.536;2023-02-01T00:31:25;14.85;;;2.55;;
51877;SDS011;37911;51.526;11.536;2023-02-01T00:34:29;14.65;;;2.55;;
51877;SDS011;37911;51.526;11.536;2023-02-01T00:37:35;13.60;;;2.83;;
51877;SDS011;37911;51.526;11.536;2023-02-01T00:40:38;11.43;;;2.22;;
51877;SDS011;37911;51.526;11.536;2023-02-01T00:43:41;16.08;;;3.05;;
51877;SDS011;37911;51.526;11.536;2023-02-01T00:46:45;19.00;;;2.88;;
51877;SDS011;37911;51.526;11.536;2023-02-01T00:49:49;16.40;;;3.08;;
51877;SDS011;37911;51.526;11.536;2023-02-01T00:52:54;14.27;;;2.95;;
51877;SDS011;37911;51.526;11.536;2023-02-01T00:55:58;15.82;;;2.67;;
51877;SDS011;37911;51.526;11.536;2023-02-01T00:59:02;11.85;;;2.95;;
51877;SDS011;37911;51.526;11.536;2023-02-01T01:02:06;22.60;;;4.40;;
51877;SDS011;37911;51.526;11.536;2023-02-01T01:05:10;19.50;;;3.53;;
51877;SDS011;37911;51.526;11.536;2023-02-01T01:08:16;17.52;;;2.70;;
51877;SDS011;37911;51.526;11.536;2023-02-01T01:11:20;14.02;;;3.00;;
51877;SDS011;37911;51.526;11.536;2023-02-01T01:14:26;16.13;;;3.65;;
51877;SDS011;37911;51.526;11.536;2023-02-01T01:17:30;23.13;;;3.22;;
51877;SDS011;37911;51.526;11.536;2023-02-01T01:20:35;18.20;;;3.42;;
51877;SDS011;37911;51.526;11.536;2023-02-01T01:23:42;22.30;;;3.60;;
51877;SDS011;37911;51.526;11.536;2023-02-01T01:26:46;15.68;;;3.10;;
51877;SDS011;37911;51.526;11.536;2023-02-01T01:29:49;14.00;;;3.58;;
51877;SDS011;37911;51.526;11.536;2023-02-01T01:32:52;18.70;;;3.22;;
51877;SDS011;37911;51.526;11.536;2023-02-01T01:35:56;17.52;;;3.10;;
51877;SDS011;37911;51.526;11.536;2023-02-01T01:39:02;19.00;;;3.85;;
51877;SDS011;37911;51.526;11.536;2023-02-01T01:42:05;24.85;;;3.42;;
51877;SDS011;37911;51.526;11.536;2023-02-01T01:45:12;15.65;;;3.30;;
51877;SDS011;37911;51.526;11.536;2023-02-01T01:48:24;21.65;;;3.42;;
51877;SDS011;37911;51.526;11.536;2023-02-01T01:51:29;8.93;;;2.88;;
51877;SDS011;37911;51.526;11.536;2023-02-01T01:54:39;14.65;;;3.25;;
51877;SDS011;37911;51.526;11.536;2023-02-01T01:57:46;15.95;;;2.83;;
51877;SDS011;37911;51.526;11.536;2023-02-01T02:00:54;17.67;;;3.10;;
51877;SDS011;37911;51.526;11.536;2023-02-01T02:03:58;25.00;;;3.63;;
51877;SDS011;37911;51.526;11.536;2023-02-01T02:07:04;23.50;;;3.65;;
51877;SDS011;37911;51.526;11.536;2023-02-01T02:10:14;21.42;;;3.83;;
51877;SDS011;37911;51.526;11.536;2023-02-01T02:13:18;21.15;;;3.33;;
51877;SDS011;37911;51.526;11.536;2023-02-01T02:23:34;19.85;;;4.00;;
51877;SDS011;37911;51.526;11.536;2023-02-01T02:27:04;25.92;;;4.50;;
51877;SDS011;37911;51.526;11.536;2023-02-01T02:34:00;18.17;;;3.20;;
51877;SDS011;37911;51.526;11.536;2023-02-01T02:37:15;17.38;;;3.30;;
51877;SDS011;37911;51.526;11.536;2023-02-01T02:40:23;18.52;;;4.18;;
51877;SDS011;37911;51.526;11.536;2023-02-01T02:46:51;18.60;;;3.35;;
51877;SDS011;37911;51.526;11.536;2023-02-01T02:50:13;20.08;;;3.80;;
51877;SDS011;37911;51.526;11.536;2023-02-01T02:53:35;19.23;;;3.75;;
51877;SDS011;37911;51.526;11.536;2023-02-01T02:56:59;24.45;;;3.53;;
51877;SDS011;37911;51.526;11.536;2023-02-01T03:00:18;19.65;;;3.60;;
51877;SDS011;37911;51.526;11.536;2023-02-01T03:03:37;19.52;;;3.35;;
51877;SDS011;37911;51.526;11.536;2023-02-01T03:06:56;29.25;;;4.40;;
51877;SDS011;37911;51.526;11.536;2023-02-01T03:09:59;18.63;;;3.50;;
51877;SDS011;37911;51.526;11.536;2023-02-01T03:13:09;22.85;;;4.00;;
51877;SDS011;37911;51.526;11.536;2023-02-01T03:16:16;20.20;;;3.70;;
51877;SDS011;37911;51.526;11.536;2023-02-01T03:19:27;19.92;;;3.65;;
51877;SDS011;37911;51.526;11.536;2023-02-01T03:22:37;22.70;;;4.07;;
51877;SDS011;37911;51.526;11.536;2023-02-01T03:25:42;25.17;;;4.88;;
51877;SDS011;37911;51.526;11.536;2023-02-01T03:28:48;20.05;;;3.33;;
51877;SDS011;37911;51.526;11.536;2023-02-01T03:31:55;21.75;;;3.83;;
51877;SDS011;37911;51.526;11.536;2023-02-01T03:34:58;28.15;;;3.90;;
51877;SDS011;37911;51.526;11.536;2023-02-01T03:38:08;23.75;;;4.20;;
51877;SDS011;37911;51.526;11.536;2023-02-01T03:41:17;21.50;;;4.75;;
51877;SDS011;37911;51.526;11.536;2023-02-01T03:44:28;22.25;;;4.32;;
51877;SDS011;37911;51.526;11.536;2023-02-01T03:47:36;16.42;;;3.50;;
51877;SDS011;37911;51.526;11.536;2023-02-01T03:50:43;22.67;;;4.18;;
51877;SDS011;37911;51.526;11.536;2023-02-01T03:53:53;21.13;;;4.85;;
51877;SDS011;37911;51.526;11.536;2023-02-01T03:57:01;25.05;;;4.35;;
51877;SDS011;37911;51.526;11.536;2023-02-01T04:00:14;22.10;;;3.95;;
51877;SDS011;37911;51.526;11.536;2023-02-01T04:03:19;27.02;;;4.40;;
51877;SDS011;37911;51.526;11.536;2023-02-01T04:06:25;25.02;;;4.45;;
51877;SDS011;37911;51.526;11.536;2023-02-01T04:09:36;23.65;;;3.88;;
51877;SDS011;37911;51.526;11.536;2023-02-01T04:12:39;20.95;;;4.47;;
51877;SDS011;37911;51.526;11.536;2023-02-01T04:15:43;19.45;;;3.25;;
51877;SDS011;37911;51.526;11.536;2023-02-01T04:18:47;23.35;;;4.70;;
51877;SDS011;37911;51.526;11.536;2023-02-01T04:21:50;24.77;;;3.20;;
51877;SDS011;37911;51.526;11.536;2023-02-01T04:24:56;23.88;;;4.40;;
51877;SDS011;37911;51.526;11.536;2023-02-01T04:27:59;22.65;;;3.95;;
51877;SDS011;37911;51.526;11.536;2023-02-01T04:31:03;25.92;;;3.90;;
51877;SDS011;37911;51.526;11.536;2023-02-01T04:34:06;14.93;;;3.22;;
51877;SDS011;37911;51.526;11.536;2023-02-01T04:37:10;19.75;;;4.93;;
51877;SDS011;37911;51.526;11.536;2023-02-01T04:40:16;20.70;;;3.22;;
51877;SDS011;37911;51.526;11.536;2023-02-01T04:43:19;21.13;;;4.13;;
51877;SDS011;37911;51.526;11.536;2023-02-01T04:46:22;20.48;;;5.55;;
51877;SDS011;37911;51.526;11.536;2023-02-01T04:49:26;22.27;;;4.75;;
51877;SDS011;37911;51.526;11.536;2023-02-01T04:52:29;17.17;;;4.20;;
51877;SDS011;37911;51.526;11.536;2023-02-01T04:55:35;23.25;;;4.20;;
51877;SDS011;37911;51.526;11.536;2023-02-01T04:58:38;25.45;;;5.18;;
51877;SDS011;37911;51.526;11.536;2023-02-01T05:01:41;24.80;;;4.20;;
51877;SDS011;37911;51.526;11.536;2023-02-01T05:04:45;18.75;;;3.95;;
51877;SDS011;37911;51.526;11.536;2023-02-01T05:07:48;22.60;;;4.10;;
51877;SDS011;37911;51.526;11.536;2023-02-01T05:10:54;19.83;;;3.45;;
51877;SDS011;37911;51.526;11.536;2023-02-01T05:13:57;23.40;;;3.92;;
51877;SDS011;37911;51.526;11.536;2023-02-01T05:16:58;24.40;;;3.80;;
51877;SDS011;37911;51.526;11.536;2023-02-01T05:20:01;21.52;;;3.80;;
51877;SDS011;37911;51.526;11.536;2023-02-01T05:23:04;23.27;;;3.67;;
51877;SDS011;37911;51.526;11.536;2023-02-01T05:26:11;20.85;;;4.65;;
51877;SDS011;37911;51.526;11.536;2023-02-01T05:29:15;25.77;;;4.15;;
51877;SDS011;37911;51.526;11.536;2023-02-01T05:32:21;33.70;;;4.60;;
51877;SDS011;37911;51.526;11.536;2023-02-01T05:35:24;18.60;;;3.72;;
51877;SDS011;37911;51.526;11.536;2023-02-01T05:38:28;20.08;;;4.40;;
51877;SDS011;37911;51.526;11.536;2023-02-01T05:41:33;18.80;;;4.40;;
51877;SDS011;37911;51.526;11.536;2023-02-01T05:44:37;21.77;;;3.97;;
51877;SDS011;37911;51.526;11.536;2023-02-01T05:47:40;18.63;;;3.97;;
51877;SDS011;37911;51.526;11.536;2023-02-01T05:50:43;20.70;;;4.22;;
51877;SDS011;37911;51.526;11.536;2023-02-01T05:53:47;22.95;;;4.15;;
51877;SDS011;37911;51.526;11.536;2023-02-01T05:56:53;18.23;;;3.88;;
51877;SDS011;37911;51.526;11.536;2023-02-01T05:59:56;31.52;;;4.88;;
51877;SDS011;37911;51.526;11.536;2023-02-01T06:03:00;24.98;;;4.40;;
51877;SDS011;37911;51.526;11.536;2023-02-01T06:06:03;18.92;;;4.10;;
51877;SDS011;37911;51.526;11.536;2023-02-01T06:09:07;18.20;;;4.47;;
51877;SDS011;37911;51.526;11.536;2023-02-01T06:12:12;24.13;;;4.30;;
51877;SDS011;37911;51.526;11.536;2023-02-01T06:15:16;18.92;;;3.60;;
51877;SDS011;37911;51.526;11.536;2023-02-01T06:18:19;14.77;;;4.10;;
51877;SDS011;37911;51.526;11.536;2023-02-01T06:21:22;23.23;;;4.20;;
51877;SDS011;37911;51.526;11.536;2023-02-01T06:24:26;20.40;;;4.20;;
51877;SDS011;37911;51.526;11.536;2023-02-01T06:27:32;22.27;;;3.70;;
51877;SDS011;37911;51.526;11.536;2023-02-01T06:30:35;23.20;;;5.30;;
51877;SDS011;37911;51.526;11.536;2023-02-01T06:33:41;32.20;;;5.05;;
51877;SDS011;37911;51.526;11.536;2023-02-01T06:36:45;23.25;;;4.72;;
51877;SDS011;37911;51.526;11.536;2023-02-01T06:39:49;28.50;;;3.92;;
51877;SDS011;37911;51.526;11.536;2023-02-01T06:42:54;20.55;;;4.45;;
51877;SDS011;37911;51.526;11.536;2023-02-01T06:45:59;26.15;;;4.22;;
51877;SDS011;37911;51.526;11.536;2023-02-01T06:49:03;22.55;;;4.63;;
51877;SDS011;37911;51.526;11.536;2023-02-01T06:52:06;17.38;;;3.35;;
51877;SDS011;37911;51.526;11.536;2023-02-01T06:55:10;17.38;;;3.50;;
51877;SDS011;37911;51.526;11.536;2023-02-01T06:58:16;17.77;;;3.47;;
51877;SDS011;37911;51.526;11.536;2023-02-01T07:01:19;14.52;;;3.80;;
51877;SDS011;37911;51.526;11.536;2023-02-01T07:04:23;23.88;;;4.93;;
51877;SDS011;37911;51.526;11.536;2023-02-01T07:07:26;17.40;;;4.72;;
51877;SDS011;37911;51.526;11.536;2023-02-01T07:10:30;21.23;;;3.95;;
51877;SDS011;37911;51.526;11.536;2023-02-01T07:13:36;26.70;;;4.53;;
51877;SDS011;37911;51.526;11.536;2023-02-01T07:16:39;19.55;;;4.47;;
51877;SDS011;37911;51.526;11.536;2023-02-01T07:19:43;23.67;;;4.60;;
51877;SDS011;37911;51.526;11.536;2023-02-01T07:22:46;21.17;;;4.47;;
51877;SDS011;37911;51.526;11.536;2023-02-01T07:25:52;16.88;;;3.97;;
51877;SDS011;37911;51.526;11.536;2023-02-01T07:28:59;17.67;;;4.55;;
51877;SDS011;37911;51.526;11.536;2023-02-01T07:32:02;23.50;;;4.18;;
51877;SDS011;37911;51.526;11.536;2023-02-01T07:35:06;18.50;;;4.32;;
51877;SDS011;37911;51.526;11.536;2023-02-01T07:38:10;18.25;;;4.55;;
51877;SDS011;37911;51.526;11.536;2023-02-01T07:41:13;15.35;;;3.70;;
51877;SDS011;37911;51.526;11.536;2023-02-01T07:44:20;14.68;;;4.07;;
51877;SDS011;37911;51.526;11.536;2023-02-01T07:47:23;18.70;;;3.97;;
51877;SDS011;37911;51.526;11.536;2023-02-01T07:50:26;14.32;;;4.00;;
51877;SDS011;37911;51.526;11.536;2023-02-01T07:53:30;25.58;;;4.60;;
51877;SDS011;37911;51.526;11.536;2023-02-01T07:56:35;19.70;;;5.00;;
51877;SDS011;37911;51.526;11.536;2023-02-01T07:59:41;15.20;;;4.72;;
51877;SDS011;37911;51.526;11.536;2023-02-01T08:02:58;18.33;;;4.18;;
51877;SDS011;37911;51.526;11.536;2023-02-01T08:06:01;13.55;;;3.63;;
51877;SDS011;37911;51.526;11.536;2023-02-01T08:09:05;17.70;;;3.42;;
51877;SDS011;37911;51.526;11.536;2023-02-01T08:12:11;12.73;;;3.88;;
51877;SDS011;37911;51.526;11.536;2023-02-01T08:15:16;13.07;;;4.63;;
51877;SDS011;37911;51.526;11.536;2023-02-01T08:18:20;11.13;;;3.03;;
51877;SDS011;37911;51.526;11.536;2023-02-01T08:21:24;10.15;;;2.83;;
51877;SDS011;37911;51.526;11.536;2023-02-01T08:24:36;11.13;;;3.72;;
51877;SDS011;37911;51.526;11.536;2023-02-01T08:27:41;13.88;;;4.30;;
51877;SDS011;37911;51.526;11.536;2023-02-01T08:30:47;12.77;;;4.53;;
51877;SDS011;37911;51.526;11.536;2023-02-01T08:33:51;10.20;;;4.03;;
51877;SDS011;37911;51.526;11.536;2023-02-01T08:36:55;13.57;;;5.15;;
51877;SDS011;37911;51.526;11.536;2023-02-01T08:40:02;15.10;;;4.82;;
51877;SDS011;37911;51.526;11.536;2023-02-01T08:43:06;17.75;;;4.43;;
51877;SDS011;37911;51.526;11.536;2023-02-01T08:46:11;21.63;;;5.32;;
51877;SDS011;37911;51.526;11.536;2023-02-01T08:49:15;17.38;;;5.45;;
51877;SDS011;37911;51.526;11.536;2023-02-01T08:52:18;27.65;;;5.65;;
51877;SDS011;37911;51.526;11.536;2023-02-01T08:55:21;15.20;;;4.55;;
51877;SDS011;37911;51.526;11.536;2023-02-01T08:58:25;17.73;;;4.65;;
51877;SDS011;37911;51.526;11.536;2023-02-01T09:01:31;17.45;;;5.07;;
51877;SDS011;37911;51.526;11.536;2023-02-01T09:04:34;15.07;;;5.18;;
51877;SDS011;37911;51.526;11.536;2023-02-01T09:07:38;9.85;;;3.97;;
51877;SDS011;37911;51.526;11.536;2023-02-01T09:10:41;13.13;;;4.25;;
51877;SDS011;37911;51.526;11.536;2023-02-01T09:13:46;15.38;;;4.57;;
51877;SDS011;37911;51.526;11.536;2023-02-01T09:16:52;14.55;;;4.82;;
51877;SDS011;37911;51.526;11.536;2023-02-01T09:19:55;15.35;;;4.05;;
51877;SDS011;37911;51.526;11.536;2023-02-01T09:22:59;11.98;;;3.63;;
51877;SDS011;37911;51.526;11.536;2023-02-01T09:26:03;13.27;;;3.22;;
51877;SDS011;37911;51.526;11.536;2023-02-01T09:29:08;13.35;;;3.65;;
51877;SDS011;37911;51.526;11.536;2023-02-01T09:32:16;11.18;;;3.03;;
51877;SDS011;37911;51.526;11.536;2023-02-01T09:35:20;13.48;;;2.92;;
51877;SDS011;37911;51.526;11.536;2023-02-01T09:38:23;13.88;;;3.50;;
51877;SDS011;37911;51.526;11.536;2023-02-01T09:41:32;10.57;;;3.28;;
51877;SDS011;37911;51.526;11.536;2023-02-01T09:44:44;14.30;;;2.95;;
51877;SDS011;37911;51.526;11.536;2023-02-01T09:48:02;8.32;;;2.50;;
51877;SDS011;37911;51.526;11.536;2023-02-01T09:51:12;13.77;;;3.30;;
51877;SDS011;37911;51.526;11.536;2023-02-01T09:54:19;14.07;;;3.65;;
51877;SDS011;37911;51.526;11.536;2023-02-01T09:57:26;12.80;;;2.90;;
51877;SDS011;37911;51.526;11.536;2023-02-01T10:00:36;15.70;;;4.90;;
51877;SDS011;37911;51.526;11.536;2023-02-01T10:03:44;14.02;;;4.00;;
51877;SDS011;37911;51.526;11.536;2023-02-01T10:06:54;57.10;;;31.60;;
51877;SDS011;37911;51.526;11.536;2023-02-01T10:10:04;34.70;;;17.55;;
51877;SDS011;37911;51.526;11.536;2023-02-01T10:13:18;18.75;;;4.68;;
51877;SDS011;37911;51.526;11.536;2023-02-01T10:16:43;13.05;;;3.33;;
51877;SDS011;37911;51.526;11.536;2023-02-01T10:19:58;14.13;;;3.17;;
51877;SDS011;37911;51.526;11.536;2023-02-01T10:23:11;18.73;;;3.70;;
51877;SDS011;37911;51.526;11.536;2023-02-01T10:26:29;16.70;;;2.65;;
51877;SDS011;37911;51.526;11.536;2023-02-01T10:29:36;13.95;;;3.30;;
51877;SDS011;37911;51.526;11.536;2023-02-01T10:32:41;12.77;;;3.08;;
51877;SDS011;37911;51.526;11.536;2023-02-01T10:35:48;18.60;;;3.63;;
51877;SDS011;37911;51.526;11.536;2023-02-01T10:38:56;18.20;;;4.20;;
51877;SDS011;37911;51.526;11.536;2023-02-01T10:42:00;15.98;;;3.60;;
51877;SDS011;37911;51.526;11.536;2023-02-01T10:45:04;19.38;;;3.15;;
51877;SDS011;37911;51.526;11.536;2023-02-01T10:48:08;8.45;;;2.47;;
51877;SDS011;37911;51.526;11.536;2023-02-01T10:51:14;15.50;;;3.83;;
51877;SDS011;37911;51.526;11.536;2023-02-01T10:54:31;15.52;;;3.55;;
51877;SDS011;37911;51.526;11.536;2023-02-01T10:57:38;21.67;;;9.50;;
51877;SDS011;37911;51.526;11.536;2023-02-01T11:00:42;41.58;;;18.45;;
51877;SDS011;37911;51.526;11.536;2023-02-01T11:03:51;51.08;;;25.85;;
51877;SDS011;37911;51.526;11.536;2023-02-01T11:07:06;22.40;;;3.55;;
51877;SDS011;37911;51.526;11.536;2023-02-01T11:13:38;18.33;;;3.58;;
51877;SDS011;37911;51.526;11.536;2023-02-01T11:16:46;14.57;;;3.50;;
51877;SDS011;37911;51.526;11.536;2023-02-01T11:19:56;15.90;;;3.53;;
51877;SDS011;37911;51.526;11.536;2023-02-01T11:23:03;13.90;;;3.40;;
51877;SDS011;37911;51.526;11.536;2023-02-01T11:26:07;13.82;;;3.85;;
51877;SDS011;37911;51.526;11.536;2023-02-01T11:29:15;15.60;;;3.75;;
51877;SDS011;37911;51.526;11.536;2023-02-01T11:32:23;12.38;;;3.70;;
51877;SDS011;37911;51.526;11.536;2023-02-01T11:35:27;19.13;;;4.43;;
51877;SDS011;37911;51.526;11.536;2023-02-01T11:38:34;17.88;;;4.85;;
51877;SDS011;37911;51.526;11.536;2023-02-01T11:41:41;20.05;;;3.92;;
51877;SDS011;37911;51.526;11.536;2023-02-01T11:44:46;17.15;;;3.50;;
51877;SDS011;37911;51.526;11.536;2023-02-01T11:47:51;15.52;;;3.63;;
51877;SDS011;37911;51.526;11.536;2023-02-01T11:50:59;15.93;;;3.65;;
51877;SDS011;37911;51.526;11.536;2023-02-01T11:54:17;19.90;;;3.42;;
51877;SDS011;37911;51.526;11.536;2023-02-01T11:57:47;14.65;;;3.33;;
51877;SDS011;37911;51.526;11.536;2023-02-01T12:01:01;16.42;;;3.08;;
51877;SDS011;37911;51.526;11.536;2023-02-01T12:04:18;19.65;;;4.05;;
51877;SDS011;37911;51.526;11.536;2023-02-01T12:07:46;12.20;;;2.42;;
51877;SDS011;37911;51.526;11.536;2023-02-01T12:11:06;11.88;;;2.35;;
51877;SDS011;37911;51.526;11.536;2023-02-01T12:14:27;14.75;;;3.03;;
51877;SDS011;37911;51.526;11.536;2023-02-01T12:17:43;16.58;;;2.90;;
51877;SDS011;37911;51.526;11.536;2023-02-01T12:21:06;20.58;;;2.97;;
51877;SDS011;37911;51.526;11.536;2023-02-01T12:24:38;12.98;;;3.25;;
51877;SDS011;37911;51.526;11.536;2023-02-01T12:28:04;15.85;;;3.40;;
51877;SDS011;37911;51.526;11.536;2023-02-01T12:31:35;15.05;;;3.67;;
51877;SDS011;37911;51.526;11.536;2023-02-01T12:35:09;12.27;;;2.85;;
51877;SDS011;37911;51.526;11.536;2023-02-01T12:38:29;15.48;;;3.17;;
51877;SDS011;37911;51.526;11.536;2023-02-01T12:41:46;13.63;;;2.83;;
51877;SDS011;37911;51.526;11.536;2023-02-01T12:44:55;14.00;;;2.88;;
51877;SDS011;37911;51.526;11.536;2023-02-01T12:48:08;14.45;;;3.22;;
51877;SDS011;37911;51.526;11.536;2023-02-01T12:51:26;15.80;;;3.08;;
51877;SDS011;37911;51.526;11.536;2023-02-01T12:54:34;20.95;;;3.53;;
51877;SDS011;37911;51.526;11.536;2023-02-01T12:57:40;22.27;;;3.13;;
51877;SDS011;37911;51.526;11.536;2023-02-01T13:00:50;15.60;;;3.22;;
51877;SDS011;37911;51.526;11.536;2023-02-01T13:04:02;15.38;;;2.92;;
51877;SDS011;37911;51.526;11.536;2023-02-01T13:07:12;15.10;;;3.22;;
51877;SDS011;37911;51.526;11.536;2023-02-01T13:10:22;21.33;;;3.80;;
51877;SDS011;37911;51.526;11.536;2023-02-01T13:13:35;15.80;;;3.05;;
51877;SDS011;37911;51.526;11.536;2023-02-01T13:16:48;14.55;;;3.13;;
51877;SDS011;37911;51.526;11.536;2023-02-01T13:19:54;17.40;;;3.22;;
51877;SDS011;37911;51.526;11.536;2023-02-01T13:23:01;13.85;;;3.30;;
51877;SDS011;37911;51.526;11.536;2023-02-01T13:26:07;14.13;;;2.95;;
51877;SDS011;37911;51.526;11.536;2023-02-01T13:29:11;15.32;;;3.13;;
51877;SDS011;37911;51.526;11.536;2023-02-01T13:32:23;17.92;;;3.80;;
51877;SDS011;37911;51.526;11.536;2023-02-01T13:35:38;19.42;;;3.38;;
51877;SDS011;37911;51.526;11.536;2023-02-01T13:42:25;19.60;;;3.17;;
51877;SDS011;37911;51.526;11.536;2023-02-01T13:45:31;16.75;;;3.03;;
51877;SDS011;37911;51.526;11.536;2023-02-01T13:48:46;10.30;;;2.88;;
51877;SDS011;37911;51.526;11.536;2023-02-01T13:51:53;15.80;;;3.33;;
51877;SDS011;37911;51.526;11.536;2023-02-01T13:55:02;11.95;;;2.88;;
51877;SDS011;37911;51.526;11.536;2023-02-01T13:58:18;16.75;;;3.47;;
51877;SDS011;37911;51.526;11.536;2023-02-01T14:04:50;12.77;;;3.15;;
51877;SDS011;37911;51.526;11.536;2023-02-01T14:08:09;12.40;;;3.28;;
51877;SDS011;37911;51.526;11.536;2023-02-01T14:14:40;13.77;;;3.47;;
51877;SDS011;37911;51.526;11.536;2023-02-01T14:17:43;18.02;;;3.67;;
51877;SDS011;37911;51.526;11.536;2023-02-01T14:20:49;16.00;;;3.40;;
51877;SDS011;37911;51.526;11.536;2023-02-01T14:23:57;7.28;;;3.03;;
51877;SDS011;37911;51.526;11.536;2023-02-01T14:27:07;13.80;;;3.88;;
51877;SDS011;37911;51.526;11.536;2023-02-01T14:30:21;15.10;;;4.07;;
51877;SDS011;37911;51.526;11.536;2023-02-01T14:33:26;13.23;;;3.75;;
51877;SDS011;37911;51.526;11.536;2023-02-01T14:36:43;11.27;;;3.72;;
51877;SDS011;37911;51.526;11.536;2023-02-01T14:39:53;16.75;;;3.95;;
51877;SDS011;37911;51.526;11.536;2023-02-01T14:43:01;13.80;;;3.80;;
51877;SDS011;37911;51.526;11.536;2023-02-01T14:46:04;20.75;;;4.20;;
51877;SDS011;37911;51.526;11.536;2023-02-01T14:49:09;11.82;;;3.75;;
51877;SDS011;37911;51.526;11.536;2023-02-01T14:52:16;12.90;;;3.10;;
51877;SDS011;37911;51.526;11.536;2023-02-01T14:55:33;10.90;;;3.88;;
51877;SDS011;37911;51.526;11.536;2023-02-01T14:58:40;12.55;;;3.67;;
51877;SDS011;37911;51.526;11.536;2023-02-01T15:01:48;17.65;;;3.88;;
51877;SDS011;37911;51.526;11.536;2023-02-01T15:04:54;11.45;;;3.50;;
51877;SDS011;37911;51.526;11.536;2023-02-01T15:08:03;15.52;;;3.72;;
51877;SDS011;37911;51.526;11.536;2023-02-01T15:11:11;13.27;;;3.67;;
51877;SDS011;37911;51.526;11.536;2023-02-01T15:14:18;13.93;;;3.92;;
51877;SDS011;37911;51.526;11.536;2023-02-01T15:17:22;11.63;;;3.75;;
51877;SDS011;37911;51.526;11.536;2023-02-01T15:20:28;11.68;;;3.70;;
51877;SDS011;37911;51.526;11.536;2023-02-01T15:23:35;12.13;;;3.67;;
51877;SDS011;37911;51.526;11.536;2023-02-01T15:26:39;17.33;;;3.97;;
51877;SDS011;37911;51.526;11.536;2023-02-01T15:29:42;15.27;;;3.88;;
51877;SDS011;37911;51.526;11.536;2023-02-01T15:32:46;1.92;;;1.20;;
51877;SDS011;37911;51.526;11.536;2023-02-01T15:35:51;4.20;;;1.23;;
51877;SDS011;37911;51.526;11.536;2023-02-01T15:42:18;1.45;;;0.80;;
51877;SDS011;37911;51.526;11.536;2023-02-01T15:45:22;2.08;;;1.00;;
51877;SDS011;37911;51.526;11.536;2023-02-01T15:48:31;2.80;;;1.10;;
51877;SDS011;37911;51.526;11.536;2023-02-01T15:51:38;2.75;;;1.25;;
51877;SDS011;37911;51.526;11.536;2023-02-01T15:57:55;1.75;;;0.80;;
51877;SDS011;37911;51.526;11.536;2023-02-01T16:00:59;2.63;;;1.10;;
51877;SDS011;37911;51.526;11.536;2023-02-01T16:04:10;3.70;;;0.90;;
51877;SDS011;37911;51.526;11.536;2023-02-01T16:07:25;2.08;;;0.98;;
51877;SDS011;37911;51.526;11.536;2023-02-01T16:10:37;1.00;;;0.73;;
51877;SDS011;37911;51.526;11.536;2023-02-01T16:13:42;1.58;;;0.70;;
51877;SDS011;37911;51.526;11.536;2023-02-01T16:16:45;0.95;;;0.70;;
51877;SDS011;37911;51.526;11.536;2023-02-01T16:19:48;1.58;;;0.60;;
51877;SDS011;37911;51.526;11.536;2023-02-01T16:22:52;3.38;;;0.60;;
51877;SDS011;37911;51.526;11.536;2023-02-01T16:25:58;4.00;;;1.23;;
51877;SDS011;37911;51.526;11.536;2023-02-01T16:29:01;3.88;;;1.08;;
51877;SDS011;37911;51.526;11.536;2023-02-01T16:32:06;3.00;;;0.80;;
51877;SDS011;37911;51.526;11.536;2023-02-01T16:35:19;4.38;;;1.30;;
51877;SDS011;37911;51.526;11.536;2023-02-01T16:38:26;2.15;;;1.00;;
51877;SDS011;37911;51.526;11.536;2023-02-01T16:41:32;1.83;;;0.85;;
51877;SDS011;37911;51.526;11.536;2023-02-01T16:44:36;5.38;;;1.08;;
51877;SDS011;37911;51.526;11.536;2023-02-01T16:47:40;3.03;;;1.02;;
51877;SDS011;37911;51.526;11.536;2023-02-01T16:50:49;4.05;;;1.20;;
51877;SDS011;37911;51.526;11.536;2023-02-01T16:53:54;0.73;;;0.68;;
51877;SDS011;37911;51.526;11.536;2023-02-01T16:56:59;5.93;;;1.38;;
51877;SDS011;37911;51.526;11.536;2023-02-01T17:00:03;3.03;;;1.00;;
51877;SDS011;37911;51.526;11.536;2023-02-01T17:03:09;5.35;;;0.88;;
51877;SDS011;37911;51.526;11.536;2023-02-01T17:06:17;3.88;;;1.05;;
51877;SDS011;37911;51.526;11.536;2023-02-01T17:09:22;2.25;;;0.90;;
51877;SDS011;37911;51.526;11.536;2023-02-01T17:12:29;2.65;;;0.90;;
51877;SDS011;37911;51.526;11.536;2023-02-01T17:15:33;4.35;;;1.05;;
51877;SDS011;37911;51.526;11.536;2023-02-01T17:18:37;6.68;;;2.50;;
51877;SDS011;37911;51.526;11.536;2023-02-01T17:21:42;3.08;;;1.13;;
51877;SDS011;37911;51.526;11.536;2023-02-01T17:24:48;2.80;;;1.20;;
51877;SDS011;37911;51.526;11.536;2023-02-01T17:27:54;4.60;;;1.40;;
51877;SDS011;37911;51.526;11.536;2023-02-01T17:30:58;2.95;;;1.15;;
51877;SDS011;37911;51.526;11.536;2023-02-01T17:34:01;4.50;;;0.93;;
51877;SDS011;37911;51.526;11.536;2023-02-01T17:37:04;3.47;;;1.27;;
51877;SDS011;37911;51.526;11.536;2023-02-01T17:40:09;1.60;;;1.15;;
51877;SDS011;37911;51.526;11.536;2023-02-01T17:43:17;4.50;;;1.23;;
51877;SDS011;37911;51.526;11.536;2023-02-01T17:46:23;4.23;;;1.00;;
51877;SDS011;37911;51.526;11.536;2023-02-01T17:49:27;4.88;;;1.13;;
51877;SDS011;37911;51.526;11.536;2023-02-01T17:52:30;3.95;;;1.30;;
51877;SDS011;37911;51.526;11.536;2023-02-01T17:55:36;5.25;;;2.20;;
51877;SDS011;37911;51.526;11.536;2023-02-01T17:58:44;4.38;;;1.60;;
51877;SDS011;37911;51.526;11.536;2023-02-01T18:01:48;2.78;;;1.00;;
51877;SDS011;37911;51.526;11.536;2023-02-01T18:04:52;7.03;;;1.98;;
51877;SDS011;37911;51.526;11.536;2023-02-01T18:07:56;7.35;;;1.50;;
51877;SDS011;37911;51.526;11.536;2023-02-01T18:11:00;6.15;;;1.15;;
51877;SDS011;37911;51.526;11.536;2023-02-01T18:14:08;7.60;;;1.67;;
51877;SDS011;37911;51.526;11.536;2023-02-01T18:17:13;8.40;;;1.67;;
51877;SDS011;37911;51.526;11.536;2023-02-01T18:20:17;10.93;;;1.63;;
51877;SDS011;37911;51.526;11.536;2023-02-01T18:23:22;13.82;;;1.67;;
51877;SDS011;37911;51.526;11.536;2023-02-01T18:26:26;7.15;;;1.55;;
51877;SDS011;37911;51.526;11.536;2023-02-01T18:29:32;9.82;;;2.45;;
51877;SDS011;37911;51.526;11.536;2023-02-01T18:32:35;11.95;;;1.55;;
51877;SDS011;37911;51.526;11.536;2023-02-01T18:35:38;8.00;;;1.58;;
51877;SDS011;37911;51.526;11.536;2023-02-01T18:38:42;8.30;;;2.03;;
51877;SDS011;37911;51.526;11.536;2023-02-01T18:41:47;9.63;;;1.63;;
51877;SDS011;37911;51.526;11.536;2023-02-01T18:44:53;9.65;;;1.60;;
51877;SDS011;37911;51.526;11.536;2023-02-01T18:47:56;8.73;;;1.67;;
51877;SDS011;37911;51.526;11.536;2023-02-01T18:51:01;8.18;;;1.33;;